createdAt,value
2022-07-29T00:00:41.288Z,0.60
2022-07-29T00:03:09.051Z,0.70
2022-07-29T00:05:36.902Z,0.77
2022-07-29T00:08:07.249Z,0.63
2022-07-29T00:10:38.478Z,0.70
2022-07-29T00:13:06.187Z,0.70
2022-07-29T00:15:33.927Z,0.70
2022-07-29T00:18:01.619Z,0.50
2022-07-29T00:20:29.530Z,0.50
2022-07-29T00:23:01.069Z,0.95
2022-07-29T00:25:28.795Z,0.67
2022-07-29T00:27:56.585Z,0.70
2022-07-29T00:30:24.616Z,0.70
2022-07-29T00:32:52.386Z,0.90
2022-07-29T00:35:38.849Z,0.80
2022-07-29T00:38:06.602Z,0.80
2022-07-29T00:40:34.344Z,0.90
2022-07-29T00:43:02.977Z,1.00
2022-07-29T00:45:31.238Z,0.73
2022-07-29T00:47:58.879Z,0.80
2022-07-29T00:50:26.744Z,1.10
2022-07-29T00:52:54.473Z,0.77
2022-07-29T00:55:22.403Z,1.13
2022-07-29T00:57:50.095Z,0.63
2022-07-29T01:00:24.895Z,0.90
2022-07-29T01:02:52.734Z,0.90
2022-07-29T01:05:21.216Z,0.90
2022-07-29T01:07:49.899Z,0.68
2022-07-29T01:10:17.935Z,0.82
2022-07-29T01:12:45.864Z,1.00
2022-07-29T01:15:13.530Z,0.80
2022-07-29T01:18:00.023Z,0.90
2022-07-29T01:20:46.278Z,0.90
2022-07-29T01:23:20.111Z,0.70
2022-07-29T01:25:50.724Z,0.80
2022-07-29T01:28:32.772Z,0.80
2022-07-29T01:31:00.810Z,0.93
2022-07-29T01:33:47.321Z,1.02
2022-07-29T01:36:41.088Z,1.02
2022-07-29T01:39:08.810Z,0.90
2022-07-29T01:41:36.597Z,0.80
2022-07-29T01:44:25.781Z,0.90
2022-07-29T01:46:56.614Z,0.80
2022-07-29T01:49:26.426Z,1.10
2022-07-29T01:51:59.581Z,0.70
2022-07-29T01:54:37.639Z,0.80
2022-07-29T01:57:05.666Z,0.77
2022-07-29T01:59:33.362Z,0.80
2022-07-29T02:02:01.124Z,0.70
2022-07-29T02:04:30.339Z,0.82
2022-07-29T02:06:59.571Z,0.60
2022-07-29T02:09:29.238Z,1.13
2022-07-29T02:11:56.943Z,0.63
2022-07-29T02:14:24.727Z,0.80
2022-07-29T02:16:54.775Z,0.80
2022-07-29T02:19:23.515Z,0.90
2022-07-29T02:21:51.427Z,0.80
2022-07-29T02:24:19.355Z,0.90
2022-07-29T02:26:47.220Z,1.17
2022-07-29T02:29:14.899Z,1.00
2022-07-29T02:31:44.642Z,0.90
2022-07-29T02:34:12.696Z,0.80
2022-07-29T02:36:40.621Z,0.80
2022-07-29T02:39:08.323Z,0.70
2022-07-29T02:41:52.185Z,0.70
2022-07-29T02:44:20.737Z,0.70
2022-07-29T02:46:48.638Z,1.00
2022-07-29T02:49:34.879Z,0.90
2022-07-29T02:52:03.728Z,0.90
2022-07-29T02:54:57.800Z,0.98
2022-07-29T02:57:36.189Z,1.00
2022-07-29T03:00:23.091Z,0.80
2022-07-29T03:02:52.156Z,0.75
2022-07-29T03:05:20.949Z,0.90
2022-07-29T03:07:49.785Z,0.80
2022-07-29T03:10:17.549Z,1.10
2022-07-29T03:12:45.353Z,0.80
2022-07-29T03:15:13.153Z,0.70
2022-07-29T03:17:40.964Z,0.70
2022-07-29T03:20:09.262Z,1.00
2022-07-29T03:22:48.199Z,0.70
2022-07-29T03:25:16.753Z,0.82
2022-07-29T03:27:44.652Z,0.82
2022-07-29T03:30:12.839Z,0.80
2022-07-29T03:32:46.221Z,0.70
2022-07-29T03:35:14.425Z,0.80
2022-07-29T03:37:42.162Z,0.70
2022-07-29T03:40:10.122Z,0.90
2022-07-29T03:42:38.790Z,0.90
2022-07-29T03:45:09.920Z,0.80
2022-07-29T03:47:50.476Z,0.70
2022-07-29T03:50:20.485Z,0.90
2022-07-29T03:52:48.414Z,0.70
2022-07-29T03:55:16.421Z,1.00
2022-07-29T03:57:44.226Z,0.80
2022-07-29T04:00:12.196Z,0.93
2022-07-29T04:02:39.890Z,0.90
2022-07-29T04:05:07.722Z,0.73
2022-07-29T04:07:35.371Z,1.00
2022-07-29T04:10:03.117Z,0.95
2022-07-29T04:12:30.845Z,1.00
2022-07-29T04:14:58.577Z,0.70
2022-07-29T04:17:26.219Z,0.70
2022-07-29T04:19:54.002Z,0.80
2022-07-29T04:22:21.630Z,0.80
2022-07-29T04:24:50.803Z,0.80
2022-07-29T04:27:18.495Z,0.80
2022-07-29T04:29:56.771Z,0.80
2022-07-29T04:32:25.714Z,1.10
2022-07-29T04:34:53.772Z,0.90
2022-07-29T04:37:21.482Z,0.77
2022-07-29T04:39:49.125Z,1.10
2022-07-29T04:42:16.885Z,0.85
2022-07-29T04:44:45.077Z,1.30
2022-07-29T04:47:13.393Z,0.85
2022-07-29T04:49:41.095Z,1.17
2022-07-29T04:52:08.877Z,1.20
2022-07-29T04:54:36.498Z,0.98
2022-07-29T04:57:04.347Z,1.05
2022-07-29T04:59:31.977Z,1.00
2022-07-29T05:01:59.857Z,0.80
2022-07-29T05:04:27.642Z,0.90
2022-07-29T05:06:55.304Z,1.02
2022-07-29T05:09:23.043Z,0.90
2022-07-29T05:11:50.741Z,0.80
2022-07-29T05:14:18.834Z,0.80
2022-07-29T05:16:46.746Z,0.90
2022-07-29T05:19:14.914Z,1.13
2022-07-29T05:21:42.683Z,1.00
2022-07-29T05:24:10.479Z,0.80
2022-07-29T05:26:38.215Z,1.00
2022-07-29T05:29:05.855Z,0.85
2022-07-29T05:31:34.638Z,1.00
2022-07-29T05:34:02.417Z,1.00
2022-07-29T05:36:30.142Z,1.13
2022-07-29T05:38:57.812Z,1.05
2022-07-29T05:41:25.537Z,0.90
2022-07-29T05:43:53.576Z,1.00
2022-07-29T05:46:21.415Z,1.40
2022-07-29T05:48:49.218Z,0.98
2022-07-29T05:51:17.061Z,1.00
2022-07-29T05:53:45.963Z,0.90
2022-07-29T05:56:13.605Z,1.05
2022-07-29T05:58:41.367Z,0.90
2022-07-29T06:01:09.133Z,0.70
2022-07-29T06:03:38.853Z,0.90
2022-07-29T06:06:07.426Z,0.80
2022-07-29T06:08:35.526Z,0.90
2022-07-29T06:11:03.301Z,0.80
2022-07-29T06:13:30.970Z,1.05
2022-07-29T06:15:58.831Z,1.33
2022-07-29T06:18:27.018Z,1.10
2022-07-29T06:20:54.954Z,0.75
2022-07-29T06:23:23.261Z,0.90
2022-07-29T06:25:51.022Z,0.90
2022-07-29T06:28:18.709Z,1.23
2022-07-29T06:30:46.514Z,1.38
2022-07-29T06:33:18.279Z,1.13
2022-07-29T06:35:53.306Z,1.10
2022-07-29T06:38:31.816Z,1.25
2022-07-29T06:41:02.226Z,1.00
2022-07-29T06:43:32.578Z,0.95
2022-07-29T06:46:01.168Z,1.10
2022-07-29T06:48:29.372Z,0.90
2022-07-29T06:50:57.183Z,0.90
2022-07-29T06:53:24.965Z,1.00
2022-07-29T06:55:52.867Z,0.95
2022-07-29T06:58:21.620Z,1.13
2022-07-29T07:00:49.463Z,1.10
2022-07-29T07:03:17.684Z,1.00
2022-07-29T07:05:45.463Z,0.93
2022-07-29T07:08:13.450Z,1.02
2022-07-29T07:10:41.250Z,1.02
2022-07-29T07:13:08.913Z,0.83
2022-07-29T07:15:39.200Z,1.00
2022-07-29T07:18:07.887Z,1.48
2022-07-29T07:20:35.895Z,1.15
2022-07-29T07:23:03.749Z,1.30
2022-07-29T07:25:31.518Z,1.20
2022-07-29T07:27:59.374Z,1.58
2022-07-29T07:30:27.427Z,1.17
2022-07-29T07:32:55.374Z,1.20
2022-07-29T07:35:23.015Z,1.10
2022-07-29T07:37:50.737Z,1.00
2022-07-29T07:40:18.614Z,1.40
2022-07-29T07:42:46.724Z,1.20
2022-07-29T07:45:15.957Z,1.40
2022-07-29T07:47:44.035Z,1.10
2022-07-29T07:50:17.991Z,1.23
2022-07-29T07:52:53.062Z,1.20
2022-07-29T07:55:21.121Z,1.27
2022-07-29T07:57:48.925Z,1.58
2022-07-29T08:00:17.428Z,0.98
2022-07-29T08:02:46.221Z,1.83
2022-07-29T08:05:18.029Z,1.13
2022-07-29T08:07:46.662Z,1.20
2022-07-29T08:10:15.425Z,1.10
2022-07-29T08:12:43.749Z,1.17
2022-07-29T08:15:11.537Z,1.23
2022-07-29T08:17:39.274Z,1.27
2022-07-29T08:20:07.343Z,1.57
2022-07-29T08:22:35.126Z,1.30
2022-07-29T08:25:02.789Z,1.30
2022-07-29T08:27:47.291Z,1.20
2022-07-29T08:30:15.950Z,1.55
2022-07-29T08:32:53.876Z,1.40
2022-07-29T08:35:22.859Z,1.30
2022-07-29T08:37:50.570Z,1.33
2022-07-29T08:40:18.288Z,1.33
2022-07-29T08:42:46.008Z,1.10
2022-07-29T08:45:13.771Z,1.30
2022-07-29T08:47:41.565Z,1.35
2022-07-29T08:50:09.780Z,1.15
2022-07-29T08:52:38.284Z,1.30
2022-07-29T08:55:09.430Z,1.30
2022-07-29T08:57:37.590Z,1.50
2022-07-29T09:00:08.126Z,1.50
2022-07-29T09:02:41.994Z,1.33
2022-07-29T09:05:09.828Z,1.48
2022-07-29T09:07:37.542Z,1.50
2022-07-29T09:10:06.113Z,1.33
2022-07-29T09:12:37.851Z,1.50
2022-07-29T09:15:06.197Z,1.88
2022-07-29T09:17:43.333Z,1.50
2022-07-29T09:20:12.173Z,1.30
2022-07-29T09:22:42.050Z,1.30
2022-07-29T09:25:10.232Z,1.27
2022-07-29T09:27:38.062Z,1.17
2022-07-29T09:30:11.862Z,1.60
2022-07-29T09:33:02.438Z,1.20
2022-07-29T09:35:30.414Z,1.30
2022-07-29T09:37:58.188Z,1.30
2022-07-29T09:40:26.742Z,1.30
2022-07-29T09:42:58.201Z,1.20
2022-07-29T09:45:32.754Z,1.30
2022-07-29T09:48:04.099Z,1.50
2022-07-29T09:50:41.299Z,1.55
2022-07-29T09:53:10.588Z,1.50
2022-07-29T09:55:53.646Z,1.30
2022-07-29T09:58:22.522Z,1.40
2022-07-29T10:00:50.892Z,1.40
2022-07-29T10:03:18.902Z,1.10
2022-07-29T10:05:46.960Z,1.30
2022-07-29T10:08:14.773Z,1.20
2022-07-29T10:10:43.190Z,1.20
2022-07-29T10:13:16.186Z,1.40
2022-07-29T10:15:46.350Z,1.30
2022-07-29T10:18:14.543Z,1.27
2022-07-29T10:20:43.589Z,1.40
2022-07-29T10:23:11.278Z,1.20
2022-07-29T10:25:39.032Z,1.67
2022-07-29T10:28:07.325Z,1.83
2022-07-29T10:30:35.330Z,1.55
2022-07-29T10:33:02.973Z,1.77
2022-07-29T10:35:39.661Z,1.20
2022-07-29T10:41:22.203Z,1.60
2022-07-29T10:43:51.129Z,2.08
2022-07-29T10:46:19.638Z,1.60
2022-07-29T10:49:06.175Z,1.30
2022-07-29T10:51:54.268Z,1.47
2022-07-29T10:54:52.554Z,1.50
2022-07-29T10:57:53.994Z,1.77
2022-07-29T11:00:28.865Z,1.70
2022-07-29T11:02:59.351Z,1.50
2022-07-29T11:05:32.221Z,1.40
2022-07-29T11:08:26.273Z,1.83
2022-07-29T11:10:56.004Z,1.55
2022-07-29T11:13:43.781Z,1.50
2022-07-29T11:16:11.838Z,1.60
2022-07-29T11:19:02.791Z,1.53
2022-07-29T11:21:54.929Z,1.75
2022-07-29T11:24:30.190Z,1.80
2022-07-29T11:27:10.046Z,2.07
2022-07-29T11:29:39.821Z,1.70
2022-07-29T11:32:15.823Z,2.30
2022-07-29T11:34:46.444Z,1.80
2022-07-29T11:37:14.122Z,2.40
2022-07-29T11:39:45.481Z,2.00
2022-07-29T11:42:28.328Z,2.33
2022-07-29T11:45:41.580Z,2.10
2022-07-29T11:47:55.817Z,2.10
2022-07-29T11:50:31.330Z,2.38
2022-07-29T11:53:00.744Z,1.80
2022-07-29T11:55:32.617Z,2.28
2022-07-29T12:00:49.947Z,2.17
2022-07-29T12:03:35.285Z,2.25
2022-07-29T12:06:07.935Z,1.90
2022-07-29T12:08:41.354Z,2.00
2022-07-29T12:11:16.600Z,2.00
2022-07-29T12:13:44.983Z,1.90
2022-07-29T12:16:14.563Z,2.28
2022-07-29T12:18:42.567Z,2.20
2022-07-29T12:21:12.415Z,1.60
2022-07-29T12:23:40.606Z,2.28
2022-07-29T12:26:10.631Z,3.10
2022-07-29T12:28:39.880Z,2.17
2022-07-29T12:31:08.235Z,2.30
2022-07-29T12:33:36.272Z,2.10
2022-07-29T12:36:10.377Z,2.10
2022-07-29T12:38:41.983Z,2.25
2022-07-29T12:41:09.641Z,2.00
2022-07-29T12:43:37.421Z,2.00
2022-07-29T12:46:15.864Z,1.95
2022-07-29T12:48:44.672Z,2.00
2022-07-29T12:51:13.489Z,2.30
2022-07-29T12:53:41.263Z,2.15
2022-07-29T12:56:33.081Z,2.22
2022-07-29T12:58:59.255Z,2.55
2022-07-29T13:01:28.438Z,1.90
2022-07-29T13:04:03.918Z,2.10
2022-07-29T13:06:32.362Z,2.10
2022-07-29T13:09:08.135Z,2.30
2022-07-29T13:11:56.342Z,1.95
2022-07-29T13:14:36.170Z,2.00
2022-07-29T13:17:13.579Z,2.30
2022-07-29T13:19:44.405Z,2.50
2022-07-29T13:22:12.626Z,3.50
2022-07-29T13:24:53.701Z,1.95
2022-07-29T13:27:22.821Z,2.10
2022-07-29T13:29:52.439Z,2.22
2022-07-29T13:32:27.755Z,1.70
2022-07-29T13:34:56.855Z,2.00
2022-07-29T13:37:24.520Z,1.98
2022-07-29T13:39:53.548Z,2.05
2022-07-29T13:42:21.508Z,2.10
2022-07-29T13:44:51.925Z,1.80
2022-07-29T13:47:20.091Z,1.85
2022-07-29T13:49:47.774Z,1.88
2022-07-29T13:52:15.683Z,1.67
2022-07-29T13:54:43.941Z,2.08
2022-07-29T13:57:12.084Z,2.03
2022-07-29T13:59:40.342Z,2.73
2022-07-29T14:02:08.373Z,2.30
2022-07-29T14:04:36.126Z,2.10
2022-07-29T14:07:07.361Z,1.80
2022-07-29T14:09:40.981Z,2.53
2022-07-29T14:12:09.777Z,2.38
2022-07-29T14:14:37.842Z,2.17
2022-07-29T14:17:07.835Z,1.70
2022-07-29T14:19:40.010Z,1.73
2022-07-29T14:22:08.494Z,2.10
2022-07-29T14:24:37.554Z,2.17
2022-07-29T14:27:06.105Z,2.10
2022-07-29T14:29:37.132Z,1.98
2022-07-29T14:32:06.349Z,1.75
2022-07-29T14:34:35.272Z,1.73
2022-07-29T14:37:03.945Z,2.00
2022-07-29T14:39:32.153Z,2.08
2022-07-29T14:42:00.691Z,1.90
2022-07-29T14:44:32.351Z,1.90
2022-07-29T14:47:00.996Z,2.08
2022-07-29T14:49:35.574Z,1.90
2022-07-29T14:52:04.505Z,1.60
2022-07-29T14:54:32.136Z,1.73
2022-07-29T14:57:02.633Z,1.63
2022-07-29T14:59:30.304Z,1.83
2022-07-29T15:01:58.525Z,1.67
2022-07-29T15:04:26.534Z,1.45
2022-07-29T15:06:54.314Z,1.80
2022-07-29T15:09:24.093Z,1.60
2022-07-29T15:11:51.789Z,2.00
2022-07-29T15:14:20.083Z,1.80
2022-07-29T15:16:48.054Z,1.60
2022-07-29T15:19:16.076Z,1.70
2022-07-29T15:21:48.730Z,1.77
2022-07-29T15:24:19.582Z,1.55
2022-07-29T15:26:47.516Z,1.33
2022-07-29T15:29:15.309Z,1.77
2022-07-29T15:31:43.130Z,1.40
2022-07-29T15:34:10.908Z,1.40
2022-07-29T15:36:54.292Z,2.05
2022-07-29T15:39:22.530Z,2.00
2022-07-29T15:41:50.284Z,1.75
2022-07-29T15:44:18.085Z,1.65
2022-07-29T15:47:04.115Z,1.60
2022-07-29T15:49:48.179Z,2.03
2022-07-29T15:52:24.791Z,1.77
2022-07-29T15:54:54.477Z,1.88
2022-07-29T15:57:22.313Z,2.00
2022-07-29T15:59:50.037Z,1.73
2022-07-29T16:02:17.942Z,1.48
2022-07-29T16:04:45.695Z,1.73
2022-07-29T16:07:14.267Z,2.03
2022-07-29T16:09:42.305Z,1.60
2022-07-29T16:12:15.082Z,2.00
2022-07-29T16:14:46.229Z,2.15
2022-07-29T16:17:14.596Z,2.40
2022-07-29T16:19:43.664Z,1.80
2022-07-29T16:22:11.461Z,3.77
2022-07-29T16:24:39.402Z,2.15
2022-07-29T16:27:07.584Z,1.60
2022-07-29T16:29:37.202Z,2.23
2022-07-29T16:32:05.775Z,1.80
2022-07-29T16:34:33.591Z,1.80
2022-07-29T16:37:01.624Z,1.70
2022-07-29T16:39:29.709Z,1.98
2022-07-29T16:42:00.817Z,1.73
2022-07-29T16:44:29.731Z,1.77
2022-07-29T16:46:58.771Z,1.70
2022-07-29T16:49:27.685Z,1.70
2022-07-29T16:51:55.470Z,1.70
2022-07-29T16:54:23.177Z,1.87
2022-07-29T16:56:50.956Z,1.63
2022-07-29T16:59:18.620Z,1.50
2022-07-29T17:01:46.655Z,1.63
2022-07-29T17:04:15.221Z,1.60
2022-07-29T17:06:42.972Z,1.85
2022-07-29T17:09:11.506Z,1.63
2022-07-29T17:11:53.050Z,1.60
2022-07-29T17:14:25.483Z,1.50
2022-07-29T17:17:00.559Z,1.80
2022-07-29T17:19:30.067Z,1.90
2022-07-29T17:22:05.017Z,1.40
2022-07-29T17:24:36.807Z,1.70
2022-07-29T17:27:05.939Z,1.63
2022-07-29T17:29:35.119Z,1.70
2022-07-29T17:32:02.930Z,1.83
2022-07-29T17:34:30.704Z,2.20
2022-07-29T17:36:58.499Z,1.80
2022-07-29T17:39:26.446Z,1.75
2022-07-29T17:41:54.078Z,1.83
2022-07-29T17:44:21.927Z,1.87
2022-07-29T17:46:49.659Z,1.60
2022-07-29T17:49:17.527Z,1.65
2022-07-29T17:51:45.382Z,1.90
2022-07-29T17:54:16.069Z,1.60
2022-07-29T17:56:43.806Z,1.80
2022-07-29T17:59:11.505Z,1.95
2022-07-29T18:01:41.553Z,1.90
2022-07-29T18:04:10.005Z,1.70
2022-07-29T18:06:37.804Z,1.50
2022-07-29T18:09:05.519Z,2.17
2022-07-29T18:11:33.202Z,1.65
2022-07-29T18:14:02.340Z,1.60
2022-07-29T18:16:30.296Z,2.00
2022-07-29T18:18:58.080Z,1.67
2022-07-29T18:21:51.302Z,1.90
2022-07-29T18:24:13.418Z,1.98
2022-07-29T18:26:41.103Z,1.87
2022-07-29T18:29:09.617Z,1.95
2022-07-29T18:31:38.632Z,1.60
2022-07-29T18:34:06.482Z,1.83
2022-07-29T18:36:34.294Z,2.10
2022-07-29T18:39:01.947Z,1.92
2022-07-29T18:41:29.801Z,1.85
2022-07-29T18:43:57.444Z,1.73
2022-07-29T18:46:25.611Z,2.03
2022-07-29T18:48:53.603Z,1.65
2022-07-29T18:51:23.638Z,1.73
2022-07-29T18:53:52.566Z,1.60
2022-07-29T18:56:20.949Z,1.75
2022-07-29T18:58:51.647Z,1.60
2022-07-29T19:01:19.399Z,1.80
2022-07-29T19:03:47.265Z,2.42
2022-07-29T19:06:15.011Z,1.90
2022-07-29T19:08:42.769Z,1.80
2022-07-29T19:11:10.485Z,1.70
2022-07-29T19:13:38.201Z,1.70
2022-07-29T19:16:06.606Z,1.77
2022-07-29T19:18:37.549Z,1.90
2022-07-29T19:21:05.418Z,1.92
2022-07-29T19:24:01.529Z,1.80
2022-07-29T19:26:21.011Z,1.77
2022-07-29T19:28:49.224Z,2.20
2022-07-29T19:31:17.143Z,1.88
2022-07-29T19:33:44.804Z,1.65
2022-07-29T19:36:16.962Z,2.03
2022-07-29T19:38:44.675Z,1.88
2022-07-29T19:41:15.927Z,1.53
2022-07-29T19:43:50.915Z,2.08
2022-07-29T19:46:21.246Z,1.85
2022-07-29T19:48:49.153Z,1.60
2022-07-29T19:51:16.934Z,1.95
2022-07-29T19:53:44.647Z,1.80
2022-07-29T19:56:12.401Z,1.73
2022-07-29T19:58:44.202Z,1.75
2022-07-29T20:01:13.090Z,1.60
2022-07-29T20:03:40.952Z,1.95
2022-07-29T20:06:08.748Z,2.10
2022-07-29T20:08:36.467Z,1.98
2022-07-29T20:11:06.436Z,2.00
2022-07-29T20:13:35.437Z,2.07
2022-07-29T20:16:05.409Z,1.80
2022-07-29T20:18:33.282Z,1.95
2022-07-29T20:21:01.557Z,1.83
2022-07-29T20:23:33.347Z,2.15
2022-07-29T20:26:01.387Z,2.20
2022-07-29T20:28:29.117Z,1.98
2022-07-29T20:30:57.654Z,2.07
2022-07-29T20:33:25.522Z,1.88
2022-07-29T20:35:53.306Z,1.88
2022-07-29T20:38:21.038Z,1.90
2022-07-29T20:40:48.840Z,2.00
2022-07-29T20:43:16.486Z,2.00
2022-07-29T20:45:44.222Z,2.10
2022-07-29T20:48:13.608Z,2.22
2022-07-29T20:50:42.808Z,2.15
2022-07-29T20:53:10.584Z,2.63
2022-07-29T20:55:38.704Z,2.40
2022-07-29T20:58:06.429Z,2.45
2022-07-29T21:00:34.096Z,2.28
2022-07-29T21:03:01.881Z,2.50
2022-07-29T21:05:30.103Z,2.97
2022-07-29T21:07:58.278Z,2.47
2022-07-29T21:10:26.367Z,2.22
2022-07-29T21:12:54.313Z,2.55
2022-07-29T21:15:22.399Z,2.33
2022-07-29T21:17:52.578Z,2.33
2022-07-29T21:20:20.813Z,2.40
2022-07-29T21:22:48.519Z,2.70
2022-07-29T21:25:16.314Z,2.60
2022-07-29T21:28:02.531Z,2.50
2022-07-29T21:30:30.275Z,4.10
2022-07-29T21:32:58.243Z,2.78
2022-07-29T21:36:01.671Z,3.28
2022-07-29T21:38:16.391Z,2.70
2022-07-29T21:40:44.462Z,2.70
2022-07-29T21:43:12.107Z,3.05
2022-07-29T21:45:39.886Z,2.70
2022-07-29T21:48:07.701Z,2.42
2022-07-29T21:50:35.571Z,2.55
2022-07-29T21:53:03.232Z,2.90
2022-07-29T21:55:32.110Z,3.03
2022-07-29T21:58:00.207Z,3.03
2022-07-29T22:00:28.886Z,3.05
2022-07-29T22:02:56.581Z,2.95
2022-07-29T22:05:24.332Z,3.03
2022-07-29T22:07:55.729Z,3.50
2022-07-29T22:10:26.039Z,3.43
2022-07-29T22:12:54.073Z,3.60
2022-07-29T22:15:22.012Z,4.00
2022-07-29T22:17:49.911Z,4.30
2022-07-29T22:20:17.627Z,3.88
2022-07-29T22:22:45.338Z,3.60
2022-07-29T22:25:12.995Z,3.83
2022-07-29T22:27:41.178Z,3.88
2022-07-29T22:30:09.115Z,3.35
2022-07-29T22:32:37.119Z,3.90
2022-07-29T22:35:05.020Z,3.80
2022-07-29T22:37:33.015Z,4.20
2022-07-29T22:40:00.748Z,4.10
2022-07-29T22:42:29.451Z,4.17
2022-07-29T22:44:57.238Z,4.07
2022-07-29T22:47:45.792Z,3.70
2022-07-29T22:50:12.614Z,3.78
2022-07-29T22:52:40.270Z,4.07
2022-07-29T22:55:08.191Z,3.60
2022-07-29T22:57:35.873Z,3.63
2022-07-29T23:00:03.883Z,3.30
2022-07-29T23:02:31.576Z,3.70
2022-07-29T23:04:59.334Z,3.63
2022-07-29T23:07:27.298Z,3.80
2022-07-29T23:09:54.951Z,4.15
2022-07-29T23:12:22.654Z,3.85
2022-07-29T23:14:50.295Z,4.25
2022-07-29T23:17:18.170Z,5.28
2022-07-29T23:19:45.981Z,4.53
2022-07-29T23:22:13.694Z,3.30
2022-07-29T23:24:41.486Z,3.50
2022-07-29T23:27:09.993Z,4.93
2022-07-29T23:29:37.798Z,5.20
2022-07-29T23:32:05.625Z,4.77
2022-07-29T23:34:33.333Z,5.53
2022-07-29T23:37:01.368Z,5.28
2022-07-29T23:39:29.407Z,5.40
2022-07-29T23:41:58.057Z,5.53
2022-07-29T23:44:25.765Z,5.72
2022-07-29T23:46:53.416Z,5.90
2022-07-29T23:49:21.240Z,6.33
2022-07-29T23:51:48.949Z,6.10
2022-07-29T23:54:16.715Z,6.90
2022-07-29T23:56:44.468Z,7.00
2022-07-29T23:59:14.176Z,7.20
